Time;durP1;ratioP1;P1;durP2;ratioP2;P2;SDS_P1;SDS_P2;PMS_P1;PMS_P2;Temp;Humidity;BMP_temperature;BMP_pressure;BME280_temperature;BME280_humidity;BME280_pressure;Samples;Min_cycle;Max_cycle;Signal;HPM_P1;HPM_P2
2023/03/18 00:07:40;;;;;;;7.88;4.22;;;12.90;66.30;;;;;;4894421;28;20090;-89
2023/03/18 00:10:54;;;;;;;9.77;4.80;;;12.90;66.40;;;;;;4962175;28;20054;-90
2023/03/18 00:14:14;;;;;;;10.53;4.53;;;12.90;66.60;;;;;;5008961;28;20136;-89
2023/03/18 00:22:00;;;;;;;9.73;5.13;;;12.90;66.70;;;;;;5032499;28;20084;-89
2023/03/18 00:24:54;;;;;;;10.25;5.22;;;12.90;66.80;;;;;;4990519;28;20093;-91
2023/03/18 00:35:52;;;;;;;11.82;6.43;;;13.00;67.20;;;;;;4995049;28;20058;-89
2023/03/18 00:39:02;;;;;;;12.07;7.07;;;13.00;67.40;;;;;;5047202;28;20065;-90
2023/03/18 00:42:16;;;;;;;10.98;6.45;;;13.00;67.50;;;;;;5005753;28;20146;-90
2023/03/18 01:09:56;;;;;;;12.70;7.80;;;13.00;68.10;;;;;;4837456;29;20213;-90
2023/03/18 01:38:08;;;;;;;17.15;9.95;;;12.70;69.30;;;;;;4905713;29;20044;-90
2023/03/18 01:41:11;;;;;;;17.00;10.00;;;12.60;69.70;;;;;;4891915;29;20065;-89
2023/03/18 01:45:10;;;;;;;17.58;10.63;;;12.60;69.80;;;;;;4900777;29;20059;-90
2023/03/18 01:54:43;;;;;;;17.08;10.88;;;12.50;70.50;;;;;;4974165;28;20520;-87
2023/03/18 01:58:02;;;;;;;18.60;10.82;;;12.50;70.70;;;;;;4974428;28;20046;-89
2023/03/18 02:00:36;;;;;;;18.77;10.80;;;12.50;70.70;;;;;;4980179;28;20059;-88
2023/03/18 02:03:15;;;;;;;19.17;10.47;;;12.50;70.90;;;;;;5004725;28;20532;-89
2023/03/18 02:12:00;;;;;;;20.17;10.98;;;12.40;71.20;;;;;;5005573;28;20046;-87
2023/03/18 02:14:28;;;;;;;18.73;11.77;;;12.40;71.30;;;;;;5012360;28;20058;-87
2023/03/18 02:21:08;;;;;;;18.95;11.30;;;12.30;71.60;;;;;;4999332;28;20054;-88
2023/03/18 02:23:56;;;;;;;18.02;10.60;;;12.30;71.60;;;;;;5015103;28;20105;-89
2023/03/18 02:26:51;;;;;;;20.30;11.50;;;12.30;71.80;;;;;;5010640;28;20169;-89
2023/03/18 02:29:31;;;;;;;16.45;10.95;;;12.20;71.90;;;;;;5011514;28;20046;-87
2023/03/18 02:32:09;;;;;;;20.10;12.20;;;12.20;72.00;;;;;;5010384;28;20058;-93
2023/03/18 02:34:39;;;;;;;23.38;12.23;;;12.20;72.40;;;;;;5014939;28;20058;-88
2023/03/18 02:37:23;;;;;;;20.98;11.23;;;12.20;72.70;;;;;;5009913;28;20506;-88
2023/03/18 02:40:17;;;;;;;19.30;11.88;;;12.10;72.50;;;;;;5016434;28;20080;-87
2023/03/18 02:43:21;;;;;;;25.83;11.88;;;12.10;72.60;;;;;;5006555;28;20143;-88
2023/03/18 02:46:37;;;;;;;22.63;12.80;;;12.00;72.80;;;;;;5012752;28;20050;-88
2023/03/18 02:49:32;;;;;;;19.50;11.75;;;12.00;73.00;;;;;;5018454;28;20582;-87
2023/03/18 02:52:04;;;;;;;23.10;13.70;;;12.00;73.00;;;;;;5005875;28;20058;-89
2023/03/18 02:54:32;;;;;;;21.50;12.30;;;12.00;73.40;;;;;;5029093;28;20546;-87
2023/03/18 02:56:59;;;;;;;23.35;12.63;;;12.00;73.70;;;;;;5011884;28;20054;-88
2023/03/18 02:59:27;;;;;;;21.83;12.67;;;11.90;73.70;;;;;;5014351;28;20567;-87
2023/03/18 03:01:56;;;;;;;22.95;13.70;;;11.90;74.00;;;;;;5007280;28;20535;-86
2023/03/18 03:04:25;;;;;;;23.27;13.30;;;11.90;74.20;;;;;;5010789;28;20081;-87
2023/03/18 03:06:56;;;;;;;20.83;12.05;;;11.90;74.20;;;;;;5010321;28;20128;-89
2023/03/18 03:09:40;;;;;;;20.80;12.73;;;11.90;74.10;;;;;;5009942;28;20105;-88
2023/03/18 03:12:08;;;;;;;22.30;12.97;;;11.90;74.50;;;;;;5007890;28;20089;-86
2023/03/18 03:14:42;;;;;;;21.45;12.35;;;11.90;74.50;;;;;;5013275;28;20111;-87
2023/03/18 03:17:11;;;;;;;22.13;12.65;;;11.90;74.40;;;;;;5008552;28;20748;-89
2023/03/18 03:19:39;;;;;;;23.13;13.52;;;11.80;74.70;;;;;;5013924;28;20057;-87
2023/03/18 03:22:08;;;;;;;21.50;13.70;;;11.90;74.80;;;;;;5017201;28;20080;-87
2023/03/18 03:24:35;;;;;;;22.80;13.13;;;11.80;74.80;;;;;;5005617;28;20065;-86
2023/03/18 03:27:04;;;;;;;23.85;14.60;;;11.80;74.80;;;;;;5013594;28;20046;-87
2023/03/18 03:29:33;;;;;;;24.67;13.57;;;11.80;75.00;;;;;;5013771;28;20512;-87
2023/03/18 03:32:02;;;;;;;22.90;14.32;;;11.70;74.90;;;;;;5007373;28;20057;-89
2023/03/18 03:34:29;;;;;;;23.60;13.10;;;11.80;75.00;;;;;;5008869;28;20085;-87
2023/03/18 03:36:57;;;;;;;19.97;12.47;;;11.70;74.70;;;;;;5024640;28;20137;-87
2023/03/18 03:39:28;;;;;;;21.08;12.77;;;11.70;74.50;;;;;;5011787;28;20054;-86
2023/03/18 03:41:57;;;;;;;21.33;13.57;;;11.70;74.50;;;;;;5004485;28;20534;-87
2023/03/18 03:44:24;;;;;;;18.00;12.60;;;11.70;74.60;;;;;;5023819;28;20054;-87
2023/03/18 03:47:02;;;;;;;19.70;12.68;;;11.70;74.40;;;;;;5029449;28;20142;-87
2023/03/18 03:49:43;;;;;;;20.67;13.03;;;11.70;74.50;;;;;;5012509;28;20057;-86
2023/03/18 03:52:11;;;;;;;22.23;12.75;;;11.70;74.40;;;;;;5013610;28;20137;-86
2023/03/18 03:54:42;;;;;;;23.45;13.48;;;11.60;74.40;;;;;;5009552;28;20061;-87
2023/03/18 03:57:09;;;;;;;21.77;12.70;;;11.60;74.40;;;;;;5011626;28;20485;-87
2023/03/18 03:59:36;;;;;;;20.83;12.73;;;11.60;74.40;;;;;;4999019;28;20050;-87
2023/03/18 04:02:16;;;;;;;20.00;12.20;;;11.50;74.40;;;;;;5007202;28;20058;-87
2023/03/18 04:04:45;;;;;;;23.17;12.65;;;11.50;74.40;;;;;;5011541;28;20041;-87
2023/03/18 04:07:24;;;;;;;19.42;12.93;;;11.50;74.50;;;;;;5013010;28;20038;-87
2023/03/18 04:09:54;;;;;;;20.08;12.65;;;11.50;74.40;;;;;;5012150;28;20052;-87
2023/03/18 04:12:21;;;;;;;19.73;13.55;;;11.50;74.40;;;;;;5012886;28;20520;-87
2023/03/18 04:14:56;;;;;;;20.83;12.47;;;11.50;74.50;;;;;;5010025;28;20103;-87
2023/03/18 04:17:24;;;;;;;20.70;13.07;;;11.50;74.50;;;;;;5012888;28;20081;-87
2023/03/18 04:19:51;;;;;;;20.77;13.68;;;11.50;74.60;;;;;;5011502;28;20046;-86
2023/03/18 04:22:21;;;;;;;21.42;12.88;;;11.50;74.60;;;;;;5013508;28;20116;-87
2023/03/18 04:24:49;;;;;;;23.77;13.38;;;11.50;74.60;;;;;;5011051;28;20495;-87
2023/03/18 04:27:18;;;;;;;23.77;13.70;;;11.50;74.60;;;;;;5012960;28;20512;-86
2023/03/18 04:29:45;;;;;;;21.42;12.60;;;11.50;74.70;;;;;;5011851;28;20724;-87
2023/03/18 04:32:14;;;;;;;24.23;14.10;;;11.50;74.70;;;;;;5013183;28;21066;-86
2023/03/18 04:34:45;;;;;;;19.17;13.27;;;11.50;74.80;;;;;;5002078;28;20059;-86
2023/03/18 04:37:13;;;;;;;22.88;14.10;;;11.40;74.80;;;;;;5006846;28;20058;-86
2023/03/18 04:39:43;;;;;;;22.80;13.83;;;11.50;75.00;;;;;;5012256;28;20401;-87
2023/03/18 04:42:12;;;;;;;25.92;15.13;;;11.40;75.10;;;;;;5020020;28;20141;-87
2023/03/18 04:44:43;;;;;;;21.42;14.57;;;11.40;75.20;;;;;;5004179;28;20054;-86
2023/03/18 04:47:11;;;;;;;22.88;14.10;;;11.40;75.30;;;;;;5011536;28;20070;-87
2023/03/18 04:49:38;;;;;;;24.08;14.80;;;11.40;75.30;;;;;;5011244;28;20050;-86
2023/03/18 04:52:07;;;;;;;21.57;13.70;;;11.40;75.30;;;;;;5012973;28;20065;-86
2023/03/18 04:54:36;;;;;;;25.30;15.27;;;11.40;75.50;;;;;;5012237;28;20046;-87
2023/03/18 04:57:06;;;;;;;25.33;15.35;;;11.40;75.50;;;;;;5009640;28;20046;-87
2023/03/18 04:59:39;;;;;;;23.02;15.50;;;11.40;75.60;;;;;;5007603;28;20250;-86
2023/03/18 05:02:13;;;;;;;25.23;14.88;;;11.30;75.70;;;;;;5004782;28;20049;-87
2023/03/18 05:04:40;;;;;;;25.20;14.63;;;11.30;75.70;;;;;;5010753;28;20058;-86
2023/03/18 05:07:08;;;;;;;24.73;15.02;;;11.30;75.70;;;;;;5007845;28;20141;-87
2023/03/18 05:09:40;;;;;;;23.85;14.60;;;11.30;75.70;;;;;;4999063;28;20058;-87
2023/03/18 05:12:13;;;;;;;23.33;14.82;;;11.30;75.70;;;;;;5000427;28;20058;-87
2023/03/18 05:14:41;;;;;;;20.42;13.93;;;11.30;75.80;;;;;;5015780;28;20539;-87
2023/03/18 05:17:14;;;;;;;26.67;15.40;;;11.30;75.80;;;;;;5021096;28;20089;-87
2023/03/18 05:19:46;;;;;;;25.40;15.27;;;11.30;75.90;;;;;;5011680;28;20142;-87
2023/03/18 05:22:19;;;;;;;22.45;15.10;;;11.30;76.00;;;;;;5009287;28;20156;-87
2023/03/18 05:24:52;;;;;;;21.00;13.75;;;11.20;76.10;;;;;;5011318;28;20053;-87
2023/03/18 05:27:22;;;;;;;23.42;14.68;;;11.20;76.10;;;;;;5009132;28;20910;-87
2023/03/18 05:29:58;;;;;;;25.27;15.10;;;11.20;76.00;;;;;;5011859;28;20169;-87
2023/03/18 05:32:33;;;;;;;26.00;14.80;;;11.20;76.00;;;;;;5011166;28;20545;-87
2023/03/18 05:35:06;;;;;;;23.38;14.93;;;11.20;76.10;;;;;;5014839;28;20046;-86
2023/03/18 05:37:45;;;;;;;22.92;14.60;;;11.20;76.20;;;;;;5015092;28;20528;-87
2023/03/18 05:40:15;;;;;;;22.77;14.20;;;11.20;76.20;;;;;;5014120;28;20559;-87
2023/03/18 05:42:49;;;;;;;20.13;12.97;;;11.10;76.30;;;;;;5010064;28;20057;-86
2023/03/18 05:45:18;;;;;;;23.80;14.75;;;11.10;76.20;;;;;;5016745;28;20124;-87
2023/03/18 05:47:53;;;;;;;23.70;14.35;;;11.10;76.30;;;;;;5006226;28;20117;-87
2023/03/18 05:50:29;;;;;;;23.55;14.57;;;11.10;76.40;;;;;;5027360;28;20538;-87
2023/03/18 05:52:57;;;;;;;20.52;12.85;;;11.10;76.40;;;;;;5007479;28;20148;-87
2023/03/18 05:55:27;;;;;;;21.57;13.97;;;11.10;76.40;;;;;;5011621;28;20057;-87
2023/03/18 05:57:54;;;;;;;22.38;13.68;;;11.10;76.50;;;;;;5011356;28;20058;-86
2023/03/18 06:00:24;;;;;;;18.52;12.40;;;11.10;76.50;;;;;;5014316;28;20428;-87
2023/03/18 06:02:53;;;;;;;21.13;13.07;;;11.10;76.50;;;;;;5022244;28;20054;-86
2023/03/18 06:05:21;;;;;;;21.58;13.57;;;11.10;76.50;;;;;;5012519;28;20200;-87
2023/03/18 06:07:50;;;;;;;21.80;12.97;;;11.10;76.50;;;;;;5014766;28;20053;-85
2023/03/18 06:10:17;;;;;;;21.15;13.50;;;11.10;76.50;;;;;;5012737;28;20105;-87
2023/03/18 06:12:46;;;;;;;19.52;12.82;;;11.10;76.60;;;;;;5002332;28;20058;-87
2023/03/18 06:15:14;;;;;;;20.85;13.15;;;11.10;76.50;;;;;;5000668;28;20454;-87
2023/03/18 06:17:42;;;;;;;17.83;11.90;;;11.10;76.50;;;;;;5002458;28;20137;-87
2023/03/18 06:20:13;;;;;;;22.43;12.27;;;11.10;76.50;;;;;;5014655;28;20054;-87
2023/03/18 06:22:40;;;;;;;19.35;12.32;;;11.10;76.40;;;;;;5009272;28;20108;-87
2023/03/18 06:25:09;;;;;;;20.40;12.48;;;11.10;76.40;;;;;;5021763;28;20053;-86
2023/03/18 06:27:39;;;;;;;21.30;12.57;;;11.10;76.40;;;;;;5003367;28;20046;-86
2023/03/18 06:30:08;;;;;;;17.50;12.38;;;11.10;76.40;;;;;;5000124;28;20058;-87
2023/03/18 06:32:37;;;;;;;20.07;12.27;;;11.10;76.40;;;;;;5006810;28;20050;-87
2023/03/18 06:35:05;;;;;;;19.27;13.27;;;11.10;76.40;;;;;;5022106;28;20867;-87
2023/03/18 06:37:33;;;;;;;19.67;12.63;;;11.10;76.40;;;;;;5005324;28;20353;-87
2023/03/18 06:40:00;;;;;;;18.35;12.20;;;11.10;76.30;;;;;;5009809;28;20735;-87
2023/03/18 06:42:33;;;;;;;21.45;12.88;;;11.10;76.20;;;;;;5011744;28;20454;-87
2023/03/18 06:45:08;;;;;;;18.90;11.73;;;11.10;76.10;;;;;;5006333;28;20554;-88
2023/03/18 06:47:48;;;;;;;16.65;11.88;;;11.10;76.10;;;;;;5007188;28;20070;-87
2023/03/18 06:50:19;;;;;;;18.73;11.98;;;11.10;76.10;;;;;;5010157;28;20053;-87
2023/03/18 06:52:50;;;;;;;18.13;11.30;;;11.10;76.20;;;;;;5002783;28;20125;-88
2023/03/18 06:55:25;;;;;;;16.05;11.52;;;11.10;75.90;;;;;;5008705;28;20570;-87
2023/03/18 06:57:55;;;;;;;19.27;12.93;;;11.10;76.00;;;;;;5013587;28;20141;-86
2023/03/18 07:00:30;;;;;;;19.40;12.07;;;11.10;76.10;;;;;;5008922;28;20056;-87
2023/03/18 07:02:58;;;;;;;18.83;11.65;;;11.10;76.20;;;;;;5006960;28;20049;-87
2023/03/18 07:05:29;;;;;;;19.10;12.23;;;11.10;76.30;;;;;;5010134;28;20500;-87
2023/03/18 07:07:57;;;;;;;18.85;12.07;;;11.10;76.50;;;;;;5009305;28;20489;-87
2023/03/18 07:10:27;;;;;;;20.63;12.60;;;11.10;76.60;;;;;;5010755;28;20122;-87
2023/03/18 07:13:03;;;;;;;20.10;12.23;;;11.10;76.70;;;;;;5012202;28;20054;-87
2023/03/18 07:15:31;;;;;;;20.55;12.02;;;11.10;76.80;;;;;;5000555;28;20050;-87
2023/03/18 07:18:01;;;;;;;21.13;12.85;;;11.10;76.80;;;;;;5011076;28;20492;-87
2023/03/18 07:20:29;;;;;;;20.40;12.50;;;11.20;76.90;;;;;;5011679;28;20109;-86
2023/03/18 07:22:58;;;;;;;19.67;11.93;;;11.20;77.20;;;;;;5009215;28;20748;-87
2023/03/18 07:25:25;;;;;;;20.15;12.32;;;11.30;77.00;;;;;;5010212;28;20120;-86
2023/03/18 07:27:53;;;;;;;18.77;12.23;;;11.30;77.10;;;;;;5026696;28;20125;-87
2023/03/18 07:30:33;;;;;;;21.30;12.73;;;11.30;77.10;;;;;;5013606;28;20120;-87
2023/03/18 07:33:02;;;;;;;18.73;12.18;;;11.30;77.20;;;;;;5009655;28;20046;-86
2023/03/18 07:35:32;;;;;;;18.63;12.03;;;11.30;77.20;;;;;;5011097;28;20525;-87
2023/03/18 07:38:00;;;;;;;18.45;11.35;;;11.30;77.10;;;;;;5006495;28;20050;-87
2023/03/18 07:40:27;;;;;;;19.67;11.93;;;11.30;77.10;;;;;;5012668;28;20049;-86
2023/03/18 07:42:54;;;;;;;19.58;12.60;;;11.30;77.10;;;;;;5024598;28;20084;-86
2023/03/18 07:45:22;;;;;;;19.95;12.45;;;11.30;77.20;;;;;;5024088;28;20049;-87
2023/03/18 07:47:52;;;;;;;19.90;13.23;;;11.30;77.30;;;;;;5037062;28;20051;-87
2023/03/18 07:50:20;;;;;;;21.60;12.73;;;11.30;77.50;;;;;;5005611;28;20125;-87
2023/03/18 07:52:52;;;;;;;20.88;12.80;;;11.40;77.60;;;;;;5004472;28;20542;-87
2023/03/18 07:55:19;;;;;;;21.52;12.57;;;11.40;77.70;;;;;;5012399;28;20064;-87
2023/03/18 07:57:53;;;;;;;21.00;13.15;;;11.30;77.60;;;;;;5023244;28;20055;-87
2023/03/18 08:00:26;;;;;;;19.63;12.47;;;11.30;77.80;;;;;;5008400;28;20064;-87
2023/03/18 08:02:54;;;;;;;24.73;12.27;;;11.30;78.10;;;;;;5003147;28;20507;-87
2023/03/18 08:05:30;;;;;;;23.45;13.07;;;11.40;78.20;;;;;;5006209;28;20429;-88
2023/03/18 08:08:06;;;;;;;20.55;11.35;;;11.30;78.30;;;;;;5013301;28;20042;-87
2023/03/18 08:11:27;;;;;;;21.33;13.23;;;11.30;78.60;;;;;;5011050;28;20053;-88
2023/03/18 08:14:40;;;;;;;25.87;16.90;;;11.30;79.00;;;;;;5000847;28;20136;-91
2023/03/18 08:17:16;;;;;;;25.20;15.85;;;11.30;79.90;;;;;;5012484;28;20052;-87
2023/03/18 08:19:50;;;;;;;25.02;14.90;;;11.30;80.20;;;;;;5010799;28;20153;-87
2023/03/18 08:22:45;;;;;;;26.88;16.27;;;11.40;80.70;;;;;;5024952;28;20058;-88
2023/03/18 08:25:13;;;;;;;27.35;17.05;;;11.40;81.00;;;;;;5011483;28;20165;-89
2023/03/18 08:27:44;;;;;;;26.60;16.23;;;11.40;81.00;;;;;;5007916;28;20110;-92
2023/03/18 08:30:31;;;;;;;25.52;16.85;;;11.40;81.10;;;;;;5011654;28;20050;-91
2023/03/18 08:41:49;;;;;;;27.23;16.85;;;11.50;81.30;;;;;;4930842;28;20771;-91
2023/03/18 08:44:44;;;;;;;30.20;17.17;;;11.50;81.20;;;;;;4966326;28;20073;-90
2023/03/18 08:47:24;;;;;;;25.23;15.20;;;11.50;81.40;;;;;;5026053;28;20046;-89
2023/03/18 08:50:21;;;;;;;26.75;16.02;;;11.50;81.50;;;;;;5008924;28;20058;-92
2023/03/18 08:52:55;;;;;;;23.63;15.23;;;11.50;81.40;;;;;;5013730;28;20054;-90
2023/03/18 08:55:25;;;;;;;24.25;15.60;;;11.60;81.50;;;;;;5012623;28;20129;-91
2023/03/18 09:01:18;;;;;;;23.83;14.75;;;11.70;81.80;;;;;;4917352;28;20226;-92
2023/03/18 09:04:23;;;;;;;24.58;15.82;;;11.70;81.50;;;;;;4958360;28;20690;-90
2023/03/18 09:06:50;;;;;;;24.70;15.07;;;11.70;81.60;;;;;;5007434;28;20050;-93
2023/03/18 09:09:21;;;;;;;24.85;15.00;;;11.70;81.50;;;;;;4997413;28;21058;-85
2023/03/18 09:11:49;;;;;;;22.10;13.93;;;11.70;81.60;;;;;;5024200;28;20058;-84
2023/03/18 09:14:25;;;;;;;22.85;14.52;;;11.80;81.60;;;;;;5020576;28;21134;-89
2023/03/18 09:30:08;;;;;;;22.03;14.17;;;12.00;82.00;;;;;;4816190;29;20090;-89
2023/03/18 09:33:14;;;;;;;24.58;15.10;;;12.10;81.70;;;;;;4882390;29;20533;-88
2023/03/18 09:36:11;;;;;;;29.15;16.77;;;12.20;81.90;;;;;;4864756;29;20098;-90
2023/03/18 09:42:19;;;;;;;27.75;15.75;;;12.40;81.70;;;;;;4951276;28;20113;-88
2023/03/18 09:45:31;;;;;;;29.40;16.70;;;12.50;81.50;;;;;;4978391;28;20054;-86
2023/03/18 09:48:37;;;;;;;26.60;16.88;;;12.50;81.30;;;;;;5021255;28;20042;-90
2023/03/18 09:51:14;;;;;;;26.85;16.27;;;12.50;81.10;;;;;;5008684;28;20050;-91
2023/03/18 09:53:57;;;;;;;30.58;19.45;;;12.50;81.20;;;;;;5012027;28;20056;-90
2023/03/18 09:56:49;;;;;;;;;;;;;;;;;;;;;
2023/03/18 10:03:42;;;;;;;31.67;18.88;;;12.50;80.70;;;;;;5019184;28;20050;-87
2023/03/18 10:06:20;;;;;;;32.28;19.75;;;12.50;80.60;;;;;;5020746;28;20057;-91
2023/03/18 10:12:59;;;;;;;27.90;16.77;;;12.60;80.50;;;;;;5013935;28;20058;-89
2023/03/18 10:15:32;;;;;;;28.33;17.57;;;12.60;80.50;;;;;;5004735;28;20042;-84
2023/03/18 10:18:05;;;;;;;28.65;19.05;;;12.60;80.50;;;;;;5000428;28;20066;-85
2023/03/18 10:20:45;;;;;;;28.92;18.13;;;12.60;80.60;;;;;;5003089;28;20051;-85
2023/03/18 10:23:27;;;;;;;29.30;18.13;;;12.70;80.60;;;;;;5025411;28;20256;-85
2023/03/18 10:25:58;;;;;;;29.80;17.25;;;12.70;80.50;;;;;;5009331;28;20218;-84
2023/03/18 10:28:55;;;;;;;27.97;17.20;;;12.70;80.40;;;;;;5023671;28;20046;-84
2023/03/18 10:31:32;;;;;;;27.17;15.32;;;12.70;80.40;;;;;;5009784;28;20511;-85
2023/03/18 10:34:01;;;;;;;25.35;15.80;;;12.80;80.30;;;;;;5007653;28;20085;-84
2023/03/18 10:36:36;;;;;;;25.10;16.27;;;12.80;80.50;;;;;;5014272;28;20141;-85
2023/03/18 10:39:06;;;;;;;25.15;16.35;;;12.80;80.60;;;;;;5017552;28;20502;-82
2023/03/18 10:41:36;;;;;;;24.70;16.03;;;12.90;80.70;;;;;;5013799;28;20548;-85
2023/03/18 10:44:29;;;;;;;23.88;17.08;;;13.00;80.00;;;;;;5027796;28;20082;-90
2023/03/18 10:47:06;;;;;;;23.40;15.13;;;13.10;79.70;;;;;;5030338;28;20054;-88
2023/03/18 10:49:51;;;;;;;23.33;14.98;;;13.10;79.30;;;;;;5030504;28;20519;-87
2023/03/18 10:52:38;;;;;;;21.17;14.35;;;13.20;79.40;;;;;;5006519;28;20578;-87
2023/03/18 10:55:18;;;;;;;20.07;13.17;;;13.30;78.60;;;;;;5013773;28;20592;-87
2023/03/18 10:57:45;;;;;;;19.52;12.95;;;13.30;78.20;;;;;;5026868;28;20088;-87
2023/03/18 11:00:25;;;;;;;21.35;14.35;;;13.40;77.70;;;;;;5013210;28;20057;-86
2023/03/18 11:02:55;;;;;;;17.17;12.52;;;13.50;77.60;;;;;;5027690;28;20495;-87
2023/03/18 11:05:25;;;;;;;16.00;12.32;;;13.50;76.90;;;;;;5005941;28;20367;-84
2023/03/18 11:07:58;;;;;;;17.10;12.10;;;13.50;76.60;;;;;;5003672;28;20058;-82
2023/03/18 11:10:32;;;;;;;14.77;10.70;;;13.50;76.50;;;;;;5008134;28;20088;-87
2023/03/18 11:13:01;;;;;;;16.73;11.90;;;13.50;76.50;;;;;;5037651;28;20117;-89
2023/03/18 11:15:29;;;;;;;13.98;9.10;;;13.50;76.50;;;;;;5032348;28;20057;-84
2023/03/18 11:18:02;;;;;;;13.80;8.88;;;13.60;76.30;;;;;;5029047;28;20054;-85
2023/03/18 11:20:41;;;;;;;13.13;9.00;;;13.60;76.20;;;;;;5017767;28;20515;-85
2023/03/18 11:23:18;;;;;;;12.55;7.47;;;13.70;76.10;;;;;;5021850;28;20042;-89
2023/03/18 11:25:48;;;;;;;13.43;8.80;;;13.70;76.20;;;;;;5005448;28;20591;-83
2023/03/18 11:28:21;;;;;;;13.95;8.85;;;13.80;75.90;;;;;;5007474;28;20133;-83
2023/03/18 11:30:51;;;;;;;12.82;8.73;;;13.90;75.60;;;;;;5037997;28;20058;-82
2023/03/18 11:33:20;;;;;;;13.87;9.10;;;13.90;75.40;;;;;;5005906;28;20038;-82
2023/03/18 11:35:52;;;;;;;13.02;8.30;;;14.00;74.80;;;;;;5022521;28;20047;-82
2023/03/18 11:38:27;;;;;;;10.60;7.70;;;14.00;74.50;;;;;;5000371;28;20080;-83
2023/03/18 11:41:05;;;;;;;12.40;7.43;;;14.10;75.20;;;;;;5024479;28;20054;-83
2023/03/18 11:43:32;;;;;;;12.05;7.35;;;14.10;75.50;;;;;;5026912;28;20050;-83
2023/03/18 11:46:03;;;;;;;11.33;6.30;;;14.20;75.30;;;;;;5008694;28;20078;-82
2023/03/18 11:48:35;;;;;;;9.70;5.72;;;14.30;74.40;;;;;;5010531;28;20050;-85
2023/03/18 11:51:43;;;;;;;10.82;6.47;;;14.40;74.00;;;;;;5017851;28;20512;-84
2023/03/18 11:54:29;;;;;;;11.20;5.80;;;14.50;73.00;;;;;;4990104;28;20145;-84
2023/03/18 11:57:03;;;;;;;9.00;5.25;;;14.60;72.80;;;;;;5026627;28;20160;-85
2023/03/18 11:59:47;;;;;;;9.90;5.37;;;14.70;71.90;;;;;;5023207;28;20504;-84
2023/03/18 12:02:30;;;;;;;7.65;5.55;;;14.80;72.20;;;;;;4999182;28;20050;-83
2023/03/18 12:05:27;;;;;;;9.45;5.40;;;14.90;71.50;;;;;;5008928;28;20042;-83
2023/03/18 12:08:08;;;;;;;9.30;6.00;;;15.00;71.00;;;;;;5015896;28;20508;-88
2023/03/18 12:10:45;;;;;;;10.65;6.13;;;15.00;70.90;;;;;;5015272;28;20128;-88
2023/03/18 12:13:28;;;;;;;10.87;6.90;;;15.10;71.00;;;;;;5006733;28;20586;-88
2023/03/18 12:16:05;;;;;;;8.73;5.45;;;15.20;70.50;;;;;;5027063;28;20046;-84
2023/03/18 12:18:48;;;;;;;10.23;6.28;;;15.30;70.30;;;;;;5009501;28;20050;-86
2023/03/18 12:21:35;;;;;;;10.02;6.80;;;15.40;69.80;;;;;;5002558;28;20143;-80
2023/03/18 12:24:14;;;;;;;10.35;5.82;;;15.50;69.40;;;;;;5011411;28;20051;-90
2023/03/18 12:26:51;;;;;;;8.67;5.33;;;15.50;68.90;;;;;;5020335;28;20141;-86
2023/03/18 12:29:41;;;;;;;9.82;5.90;;;15.60;68.50;;;;;;5009006;28;20254;-86
2023/03/18 12:32:22;;;;;;;9.02;6.10;;;15.60;68.60;;;;;;5022353;28;20452;-84
2023/03/18 12:35:06;;;;;;;10.95;6.07;;;15.60;68.60;;;;;;5002536;28;20057;-85
2023/03/18 12:37:42;;;;;;;10.00;5.75;;;15.70;67.90;;;;;;5007233;28;20065;-85
2023/03/18 12:40:23;;;;;;;10.60;5.80;;;15.80;68.10;;;;;;5026848;28;20550;-85
2023/03/18 12:43:06;;;;;;;9.90;5.40;;;15.80;67.60;;;;;;5007663;28;20532;-84
2023/03/18 12:45:38;;;;;;;9.50;5.40;;;15.80;67.20;;;;;;5011306;28;20104;-84
2023/03/18 12:48:09;;;;;;;9.68;5.60;;;15.80;66.60;;;;;;5023215;28;20109;-84
2023/03/18 12:50:41;;;;;;;11.50;6.68;;;15.80;66.10;;;;;;5017833;28;20057;-83
2023/03/18 12:53:14;;;;;;;11.43;6.17;;;15.80;66.00;;;;;;5005591;28;20128;-85
2023/03/18 12:55:44;;;;;;;11.20;6.75;;;15.80;65.90;;;;;;5027988;28;20108;-86
2023/03/18 12:58:17;;;;;;;11.15;6.97;;;15.80;65.90;;;;;;5018865;28;20625;-84
2023/03/18 13:00:49;;;;;;;13.20;6.45;;;15.80;66.10;;;;;;5019074;28;20046;-89
2023/03/18 13:03:27;;;;;;;11.13;7.25;;;15.80;66.50;;;;;;5028540;28;20057;-80
2023/03/18 13:05:58;;;;;;;12.33;6.53;;;15.80;66.90;;;;;;5024025;28;20139;-86
2023/03/18 13:09:01;;;;;;;9.88;6.25;;;15.80;67.00;;;;;;5026408;28;20085;-87
2023/03/18 13:12:00;;;;;;;8.88;5.47;;;15.80;66.40;;;;;;5013907;28;20050;-83
2023/03/18 13:14:37;;;;;;;9.95;5.28;;;15.80;66.60;;;;;;5016447;28;20053;-83
2023/03/18 13:17:04;;;;;;;9.75;5.75;;;15.80;66.30;;;;;;5021003;28;20062;-87
2023/03/18 13:19:41;;;;;;;11.20;5.97;;;15.80;66.20;;;;;;5022433;28;20699;-86
2023/03/18 13:22:23;;;;;;;10.75;5.63;;;15.80;66.20;;;;;;5010642;28;20045;-83
2023/03/18 13:25:04;;;;;;;10.20;6.15;;;15.80;66.10;;;;;;5014801;28;20062;-84
2023/03/18 13:28:07;;;;;;;11.32;5.75;;;15.80;66.10;;;;;;5027381;28;20501;-83
2023/03/18 13:30:59;;;;;;;10.85;5.63;;;15.90;66.30;;;;;;4987683;28;20062;-82
2023/03/18 13:33:41;;;;;;;9.57;5.00;;;16.00;65.80;;;;;;4996886;28;20053;-83
2023/03/18 13:36:28;;;;;;;9.82;5.70;;;16.00;65.40;;;;;;5020805;28;20597;-83
2023/03/18 13:39:17;;;;;;;10.82;6.22;;;16.00;65.20;;;;;;5004109;28;20194;-82
2023/03/18 13:42:17;;;;;;;9.32;5.85;;;16.00;64.90;;;;;;5003503;28;20659;-84
2023/03/18 13:44:49;;;;;;;10.32;6.57;;;16.00;65.30;;;;;;4994572;28;20145;-82
2023/03/18 13:47:21;;;;;;;11.33;6.70;;;16.00;65.40;;;;;;5017727;28;20059;-86
2023/03/18 13:49:49;;;;;;;12.85;6.95;;;16.00;65.40;;;;;;5003069;28;20085;-83
2023/03/18 13:52:29;;;;;;;10.02;6.35;;;16.00;65.70;;;;;;5007367;28;20376;-87
2023/03/18 13:55:01;;;;;;;10.23;5.55;;;16.00;66.10;;;;;;5026529;28;20058;-84
2023/03/18 13:57:35;;;;;;;9.25;5.60;;;16.00;66.50;;;;;;5012384;28;20129;-84
2023/03/18 14:00:27;;;;;;;10.10;5.70;;;16.10;66.80;;;;;;5028593;28;20058;-85
2023/03/18 14:03:15;;;;;;;10.30;5.65;;;16.10;66.60;;;;;;5008724;28;20468;-87
2023/03/18 14:05:44;;;;;;;9.32;6.00;;;16.10;66.60;;;;;;5013217;28;20056;-86
2023/03/18 14:08:34;;;;;;;8.88;6.03;;;16.20;66.10;;;;;;5022717;28;20050;-86
2023/03/18 14:11:48;;;;;;;10.32;6.43;;;16.20;65.90;;;;;;5012168;28;20054;-86
2023/03/18 14:14:53;;;;;;;8.67;4.90;;;16.20;66.10;;;;;;5013244;28;20053;-83
2023/03/18 14:17:27;;;;;;;7.57;4.90;;;16.20;66.00;;;;;;5022703;28;20058;-83
2023/03/18 14:19:56;;;;;;;9.00;5.15;;;16.20;66.20;;;;;;5010440;28;20193;-78
2023/03/18 14:22:29;;;;;;;8.20;5.13;;;16.20;66.40;;;;;;5025435;28;20148;-84
2023/03/18 14:25:35;;;;;;;9.38;4.72;;;16.20;66.00;;;;;;5004991;28;20054;-79
2023/03/18 14:28:18;;;;;;;7.40;4.57;;;16.20;65.90;;;;;;5021861;28;20055;-79
2023/03/18 14:30:55;;;;;;;9.40;4.28;;;16.20;66.20;;;;;;5027043;28;20046;-77
2023/03/18 14:33:33;;;;;;;7.63;4.10;;;16.20;66.20;;;;;;5026229;28;20520;-78
2023/03/18 14:36:05;;;;;;;7.07;3.75;;;16.20;66.10;;;;;;5022167;28;20619;-78
2023/03/18 14:38:40;;;;;;;6.50;3.97;;;16.20;66.10;;;;;;5019104;28;20058;-78
2023/03/18 14:41:16;;;;;;;8.00;4.00;;;16.20;66.20;;;;;;5018726;28;20077;-78
2023/03/18 14:43:51;;;;;;;8.93;4.20;;;16.20;66.00;;;;;;5022082;28;20609;-78
2023/03/18 14:46:23;;;;;;;8.55;4.22;;;16.20;65.90;;;;;;5021382;28;20157;-78
2023/03/18 14:48:53;;;;;;;9.07;4.47;;;16.20;65.90;;;;;;5018689;28;20145;-77
2023/03/18 14:51:26;;;;;;;7.53;4.93;;;16.20;66.10;;;;;;5017284;28;20057;-78
2023/03/18 14:53:58;;;;;;;8.37;4.47;;;16.10;66.30;;;;;;5020374;28;20600;-79
2023/03/18 14:56:28;;;;;;;7.53;4.93;;;16.10;66.50;;;;;;5017715;28;20157;-79
2023/03/18 14:58:56;;;;;;;9.55;5.20;;;16.10;66.70;;;;;;5017993;28;20547;-78
2023/03/18 15:01:26;;;;;;;7.30;4.85;;;16.10;66.80;;;;;;5025069;28;20511;-78
2023/03/18 15:03:54;;;;;;;8.23;4.60;;;16.00;67.10;;;;;;5023945;28;20062;-78
2023/03/18 15:06:26;;;;;;;7.77;4.70;;;16.00;67.20;;;;;;5023768;28;20547;-79
2023/03/18 15:08:58;;;;;;;7.55;4.55;;;16.00;67.20;;;;;;5025516;28;20056;-77
2023/03/18 15:11:25;;;;;;;7.30;4.10;;;16.00;67.50;;;;;;5005138;28;20054;-77
2023/03/18 15:13:54;;;;;;;7.57;4.78;;;15.90;67.70;;;;;;5024425;28;20121;-77
2023/03/18 15:16:24;;;;;;;7.95;4.50;;;15.90;67.60;;;;;;5022038;28;20583;-77
2023/03/18 15:18:55;;;;;;;7.57;4.70;;;15.90;67.70;;;;;;5022723;28;20104;-77
2023/03/18 15:21:28;;;;;;;7.53;4.68;;;15.80;67.70;;;;;;5015672;28;20089;-78
2023/03/18 15:23:59;;;;;;;8.65;4.78;;;15.80;68.20;;;;;;5033073;28;20062;-77
2023/03/18 15:26:30;;;;;;;9.70;5.15;;;15.80;68.20;;;;;;5016822;28;20647;-77